Time;durP1;ratioP1;P1;durP2;ratioP2;P2;SDS_P1;SDS_P2;PMS_P1;PMS_P2;Temp;Humidity;BMP_temperature;BMP_pressure;BME280_temperature;BME280_humidity;BME280_pressure;Samples;Min_cycle;Max_cycle;Signal;HPM_P1;HPM_P2
2021/06/28 00:01:40;;;;;;;5.87;5.37;;;;;;;21.14;86.75;99259.66;1666873;84;21027;-71
2021/06/28 00:04:09;;;;;;;5.30;4.90;;;;;;;21.13;86.94;99253.11;1670863;85;21011;-70
2021/06/28 00:06:36;;;;;;;6.40;5.40;;;;;;;21.14;86.97;99252.02;1670685;85;21154;-70
2021/06/28 00:09:04;;;;;;;6.70;6.10;;;;;;;21.19;86.90;99257.30;1670717;85;21489;-71
2021/06/28 00:11:32;;;;;;;6.45;5.90;;;;;;;21.15;86.66;99263.20;1670645;85;21548;-73
2021/06/28 00:13:59;;;;;;;8.20;6.35;;;;;;;21.10;86.70;99257.89;1670893;85;21484;-73
2021/06/28 00:16:29;;;;;;;6.03;5.37;;;;;;;21.04;87.23;99247.70;1652251;85;21604;-69
2021/06/28 00:19:02;;;;;;;6.37;5.78;;;;;;;21.02;87.16;99258.15;1643853;85;21156;-72
2021/06/28 00:21:30;;;;;;;7.08;5.28;;;;;;;21.11;86.95;99255.37;1646061;85;20932;-74
2021/06/28 00:23:56;;;;;;;5.78;5.28;;;;;;;21.16;85.99;99261.48;1668954;84;21042;-71
2021/06/28 00:26:23;;;;;;;8.53;5.12;;;;;;;21.18;85.95;99278.94;1670741;85;21524;-71
2021/06/28 00:28:50;;;;;;;5.22;4.80;;;;;;;21.17;85.79;99264.46;1670284;85;21008;-70
2021/06/28 00:31:17;;;;;;;6.37;5.30;;;;;;;21.18;85.55;99264.70;1666846;85;21520;-72
2021/06/28 00:33:45;;;;;;;5.80;5.33;;;;;;;21.14;85.45;99254.19;1670420;85;21015;-71
2021/06/28 00:36:12;;;;;;;6.53;5.37;;;;;;;21.09;85.62;99265.84;1671381;85;21054;-71
2021/06/28 00:38:41;;;;;;;5.03;4.65;;;;;;;21.04;85.82;99262.73;1668530;85;21007;-70
2021/06/28 00:41:08;;;;;;;5.17;4.72;;;;;;;21.01;85.85;99267.48;1670764;85;21528;-70
2021/06/28 00:43:34;;;;;;;6.40;4.70;;;;;;;21.02;85.87;99272.38;1665554;85;21139;-73
2021/06/28 00:46:01;;;;;;;5.92;4.75;;;;;;;21.12;85.06;99277.48;1641736;87;21071;-73
2021/06/28 00:48:28;;;;;;;5.30;4.80;;;;;;;21.10;84.76;99270.19;1641860;87;21043;-71
2021/06/28 00:50:56;;;;;;;7.75;4.67;;;;;;;21.07;84.82;99273.00;1641715;87;21055;-71
2021/06/28 00:53:24;;;;;;;5.58;5.00;;;;;;;21.09;84.84;99266.66;1641740;87;21047;-71
2021/06/28 00:55:53;;;;;;;6.47;5.20;;;;;;;21.10;84.68;99273.70;1645855;85;21199;-72
2021/06/28 00:58:20;;;;;;;6.50;5.95;;;;;;;20.99;85.12;99267.58;1688809;84;21501;-73
2021/06/28 01:00:46;;;;;;;6.90;6.22;;;;;;;20.91;85.46;99263.73;1698198;84;21049;-73
2021/06/28 01:03:13;;;;;;;5.92;5.12;;;;;;;20.88;85.59;99269.87;1674725;84;21076;-70
2021/06/28 01:05:41;;;;;;;5.60;5.10;;;;;;;20.93;85.51;99285.30;1668497;86;21071;-72
2021/06/28 01:08:08;;;;;;;5.28;4.78;;;;;;;20.97;84.91;99287.60;1668740;85;21473;-71
2021/06/28 01:10:37;;;;;;;6.37;5.05;;;;;;;20.93;85.10;99295.67;1668918;85;20940;-72
2021/06/28 01:13:06;;;;;;;6.70;5.95;;;;;;;20.92;85.21;99279.02;1668706;86;21028;-72
2021/06/28 01:15:33;;;;;;;5.60;4.42;;;;;;;20.92;85.31;99277.66;1671696;84;21077;-71
2021/06/28 01:18:00;;;;;;;5.95;5.37;;;;;;;20.95;85.26;99294.78;1696189;84;20953;-71
2021/06/28 01:20:29;;;;;;;8.38;5.45;;;;;;;20.90;85.17;99292.23;1648039;84;21155;-70
2021/06/28 01:23:15;;;;;;;8.05;5.00;;;;;;;20.85;85.35;99298.69;1696272;84;21486;-72
2021/06/28 01:25:42;;;;;;;5.62;4.92;;;;;;;20.81;85.54;99288.14;1697910;84;21143;-69
2021/06/28 01:28:09;;;;;;;10.08;6.53;;;;;;;20.81;85.52;99282.67;1698437;84;20997;-70
2021/06/28 01:30:36;;;;;;;6.45;5.65;;;;;;;20.87;85.04;99298.33;1698390;84;21061;-72
2021/06/28 01:33:04;;;;;;;7.03;6.33;;;;;;;20.90;84.94;99275.83;1698348;84;21057;-71
2021/06/28 01:35:31;;;;;;;5.58;5.08;;;;;;;20.89;85.20;99291.42;1698348;84;21572;-69
2021/06/28 01:37:57;;;;;;;5.15;4.75;;;;;;;20.92;85.20;99300.09;1685322;84;22174;-69
2021/06/28 01:40:24;;;;;;;6.47;5.45;;;;;;;20.93;85.18;99293.50;1679559;84;20985;-71
2021/06/28 01:42:51;;;;;;;6.20;5.58;;;;;;;20.92;85.41;99287.22;1682214;84;21414;-72
2021/06/28 01:45:21;;;;;;;5.35;4.85;;;;;;;20.89;85.60;99283.79;1669356;84;21185;-71
2021/06/28 01:47:54;;;;;;;6.17;4.92;;;;;;;20.88;85.61;99292.55;1668568;85;21489;-71
2021/06/28 01:50:22;;;;;;;5.90;5.37;;;;;;;20.88;85.73;99284.91;1669160;86;20901;-71
2021/06/28 01:52:49;;;;;;;9.23;6.05;;;;;;;20.88;85.59;99271.24;1668587;85;21052;-69
2021/06/28 01:55:17;;;;;;;10.45;5.78;;;;;;;20.89;85.58;99292.80;1668797;86;21032;-71
2021/06/28 01:57:48;;;;;;;5.12;4.33;;;;;;;20.91;85.35;99281.51;1660448;84;21169;-74
2021/06/28 02:00:17;;;;;;;8.38;5.10;;;;;;;20.89;85.31;99291.42;1668506;84;21022;-72
2021/06/28 02:03:05;;;;;;;6.03;5.47;;;;;;;20.84;85.23;99286.14;1655310;85;21036;-71
2021/06/28 02:05:49;;;;;;;5.83;5.33;;;;;;;20.81;85.35;99288.73;1644528;85;21063;-72
2021/06/28 02:08:19;;;;;;;5.47;4.75;;;;;;;20.82;85.35;99299.31;1642016;87;21082;-71
2021/06/28 02:10:49;;;;;;;7.47;5.35;;;;;;;20.85;85.16;99296.52;1641897;87;21139;-71
2021/06/28 02:13:21;;;;;;;6.90;5.97;;;;;;;20.84;84.79;99290.23;1639986;87;21131;-71
2021/06/28 02:15:48;;;;;;;6.92;5.62;;;;;;;20.82;84.76;99312.98;1642187;87;21048;-72
2021/06/28 02:18:16;;;;;;;6.12;5.40;;;;;;;20.79;84.71;99299.17;1642055;86;21040;-72
2021/06/28 02:20:42;;;;;;;9.10;6.17;;;;;;;20.73;84.70;99297.74;1664992;84;21067;-69
2021/06/28 02:23:32;;;;;;;8.38;5.15;;;;;;;20.70;84.77;99308.77;1670048;85;21121;-70
2021/06/28 02:26:07;;;;;;;6.78;6.05;;;;;;;20.71;84.64;99309.58;1670517;86;21600;-70
2021/06/28 02:28:38;;;;;;;6.10;5.53;;;;;;;20.70;84.38;99295.11;1670821;85;21579;-72
2021/06/28 02:31:06;;;;;;;7.50;6.10;;;;;;;20.68;84.20;99305.55;1669978;86;21103;-72
2021/06/28 02:33:35;;;;;;;6.53;6.03;;;;;;;20.62;84.04;99297.88;1670591;86;21091;-72
2021/06/28 02:36:02;;;;;;;8.20;5.80;;;;;;;20.55;83.86;99297.55;1670452;85;23196;-72
2021/06/28 02:38:29;;;;;;;5.87;5.37;;;;;;;20.50;84.06;99308.09;1648831;85;21016;-71
2021/06/28 02:40:56;;;;;;;5.97;5.37;;;;;;;20.49;83.99;99298.84;1654071;86;21079;-71
2021/06/28 02:43:23;;;;;;;5.80;5.28;;;;;;;20.45;84.04;99294.04;1659838;85;21007;-72
2021/06/28 02:45:50;;;;;;;5.92;5.30;;;;;;;20.44;83.89;99297.09;1648159;86;21032;-72
2021/06/28 02:48:18;;;;;;;5.65;5.15;;;;;;;20.43;83.93;99298.23;1670874;85;21147;-70
2021/06/28 02:50:45;;;;;;;7.97;5.67;;;;;;;20.41;83.61;99318.23;1670697;85;21520;-69
2021/06/28 02:53:16;;;;;;;8.55;6.55;;;;;;;20.38;83.57;99309.34;1665413;85;21095;-71
2021/06/28 02:55:41;;;;;;;9.30;5.37;;;;;;;20.32;83.65;99325.08;1641792;87;21521;-72
2021/06/28 02:58:08;;;;;;;6.17;5.60;;;;;;;20.29;83.70;99312.02;1680438;84;21040;-71
2021/06/28 03:00:35;;;;;;;5.47;4.97;;;;;;;20.25;83.80;99323.91;1691031;84;21521;-72
2021/06/28 03:03:02;;;;;;;5.62;4.92;;;;;;;20.24;83.82;99324.47;1679700;84;20992;-72
2021/06/28 03:05:30;;;;;;;6.33;5.80;;;;;;;20.19;83.80;99310.98;1690939;84;21703;-71
2021/06/28 03:07:57;;;;;;;6.55;5.72;;;;;;;20.16;84.21;99310.83;1669072;86;20988;-71
2021/06/28 03:10:24;;;;;;;5.28;4.87;;;;;;;20.16;84.21;99310.83;1668710;86;21011;-70
2021/06/28 03:12:52;;;;;;;7.37;5.30;;;;;;;20.15;84.03;99302.39;1675510;84;21106;-69
2021/06/28 03:15:21;;;;;;;9.93;5.37;;;;;;;20.14;83.99;99315.83;1696585;84;20961;-70
2021/06/28 03:17:47;;;;;;;6.53;5.80;;;;;;;20.00;84.28;99313.23;1697223;84;20938;-69
2021/06/28 03:20:16;;;;;;;5.78;5.25;;;;;;;20.00;84.28;99313.23;1684418;84;20977;-71
2021/06/28 03:22:45;;;;;;;6.08;5.50;;;;;;;19.98;84.39;99318.23;1669133;86;21547;-70
2021/06/28 03:25:16;;;;;;;6.47;5.85;;;;;;;20.02;84.62;99307.71;1668764;86;21199;-71
2021/06/28 03:27:43;;;;;;;5.83;5.22;;;;;;;20.02;84.62;99307.71;1685299;84;21012;-71
2021/06/28 03:30:13;;;;;;;8.38;5.78;;;;;;;20.07;84.55;99314.94;1698659;84;21273;-70
2021/06/28 03:32:40;;;;;;;6.20;5.42;;;;;;;20.10;84.47;99329.30;1698747;83;21029;-69
2021/06/28 03:35:09;;;;;;;5.90;5.22;;;;;;;20.09;84.40;99322.81;1683619;84;21525;-70
2021/06/28 03:37:36;;;;;;;6.85;5.42;;;;;;;20.01;84.70;99303.92;1669296;84;21803;-69
2021/06/28 03:40:05;;;;;;;7.42;5.67;;;;;;;20.01;84.70;99303.92;1675249;84;20977;-70
2021/06/28 03:42:35;;;;;;;9.70;5.83;;;;;;;20.05;84.82;99313.66;1697272;84;21017;-71
2021/06/28 03:45:02;;;;;;;11.88;6.00;;;;;;;20.09;84.60;99320.89;1692729;84;21037;-70
2021/06/28 03:47:30;;;;;;;6.15;5.65;;;;;;;20.09;84.60;99320.89;1668521;86;21048;-72
2021/06/28 03:49:56;;;;;;;6.78;6.28;;;;;;;20.05;84.65;99324.00;1669016;86;21137;-70
2021/06/28 03:52:23;;;;;;;6.42;5.87;;;;;;;20.00;84.96;99326.88;1668594;86;20921;-71
2021/06/28 03:54:50;;;;;;;8.58;6.58;;;;;;;19.97;85.19;99324.25;1669149;84;21073;-71
2021/06/28 03:57:17;;;;;;;6.47;5.30;;;;;;;19.97;85.30;99322.08;1678118;84;21102;-71
2021/06/28 03:59:45;;;;;;;8.13;5.20;;;;;;;19.99;85.28;99330.77;1670682;85;21618;-70
2021/06/28 04:02:12;;;;;;;6.22;5.62;;;;;;;19.99;85.25;99322.58;1653344;85;21187;-70
2021/06/28 04:04:39;;;;;;;7.20;6.55;;;;;;;19.96;85.22;99340.38;1651762;85;21079;-71
2021/06/28 04:07:06;;;;;;;7.42;5.12;;;;;;;19.96;85.33;99332.19;1654605;85;21096;-70
2021/06/28 04:09:32;;;;;;;6.20;5.53;;;;;;;19.96;85.23;99336.28;1642067;87;21035;-71
2021/06/28 04:11:59;;;;;;;5.37;4.97;;;;;;;19.95;85.11;99346.95;1642276;87;21047;-69
2021/06/28 04:14:26;;;;;;;7.45;5.95;;;;;;;19.93;85.16;99331.48;1662780;85;21553;-69
2021/06/28 04:16:55;;;;;;;10.80;5.92;;;;;;;19.97;85.09;99327.53;1671040;85;21557;-70
2021/06/28 04:19:21;;;;;;;7.03;6.35;;;;;;;20.00;84.67;99329.61;1670647;85;21030;-70
2021/06/28 04:21:48;;;;;;;7.20;6.47;;;;;;;20.00;84.67;99329.61;1669819;85;21508;-71
2021/06/28 04:24:15;;;;;;;7.35;5.33;;;;;;;20.02;84.29;99330.91;1670699;85;21094;-70
2021/06/28 04:26:42;;;;;;;6.17;5.25;;;;;;;20.03;83.88;99333.89;1653458;85;21845;-71
2021/06/28 04:29:09;;;;;;;7.67;5.92;;;;;;;20.03;83.88;99333.89;1660755;85;20936;-70
2021/06/28 04:31:37;;;;;;;5.87;5.37;;;;;;;20.05;83.63;99336.28;1670674;85;21540;-70
2021/06/28 04:34:04;;;;;;;8.20;5.47;;;;;;;20.01;83.48;99343.52;1670587;85;21102;-69
2021/06/28 04:36:32;;;;;;;6.40;5.30;;;;;;;19.99;83.48;99333.49;1665792;85;21117;-73
2021/06/28 04:38:58;;;;;;;6.50;5.05;;;;;;;19.95;83.52;99326.48;1659521;85;21095;-71
2021/06/28 04:41:25;;;;;;;5.85;5.25;;;;;;;19.94;83.76;99339.91;1663113;85;20998;-71
2021/06/28 04:43:52;;;;;;;5.55;5.05;;;;;;;19.88;83.88;99328.91;1654874;85;21587;-71
2021/06/28 04:46:20;;;;;;;7.35;5.67;;;;;;;19.86;84.11;99328.97;1647251;85;21032;-71
2021/06/28 04:48:47;;;;;;;6.50;5.55;;;;;;;19.85;84.30;99336.38;1670176;85;21568;-72
2021/06/28 04:51:14;;;;;;;6.83;5.85;;;;;;;19.87;84.28;99323.20;1670491;85;21153;-72
2021/06/28 04:53:40;;;;;;;7.03;6.45;;;;;;;19.88;84.23;99333.00;1670183;85;21095;-71
2021/06/28 04:56:07;;;;;;;6.15;5.05;;;;;;;19.86;84.24;99327.04;1670598;85;20967;-66
2021/06/28 04:58:34;;;;;;;7.75;5.17;;;;;;;19.90;84.38;99351.80;1663865;85;21075;-71
2021/06/28 05:01:01;;;;;;;7.35;6.65;;;;;;;19.93;84.08;99347.05;1659394;85;21095;-69
2021/06/28 05:03:28;;;;;;;6.25;5.70;;;;;;;19.96;83.68;99343.11;1641902;85;21157;-70
2021/06/28 05:05:56;;;;;;;6.42;5.15;;;;;;;19.94;83.54;99328.19;1641728;87;21020;-71
2021/06/28 05:08:23;;;;;;;6.42;5.80;;;;;;;19.95;83.53;99342.09;1646952;85;20964;-70
2021/06/28 05:10:50;;;;;;;6.37;5.75;;;;;;;19.95;83.41;99347.55;1642011;85;21130;-73
2021/06/28 05:13:17;;;;;;;7.90;7.20;;;;;;;19.95;83.23;99345.59;1641919;87;21096;-72
2021/06/28 05:15:45;;;;;;;6.40;5.62;;;;;;;19.96;82.84;99345.84;1641974;87;21071;-72
2021/06/28 05:18:12;;;;;;;9.55;5.60;;;;;;;19.96;82.60;99366.31;1641562;87;21047;-71
2021/06/28 05:20:39;;;;;;;7.97;7.33;;;;;;;19.98;82.08;99355.08;1691327;84;20943;-70
2021/06/28 05:23:06;;;;;;;5.28;4.87;;;;;;;19.98;82.08;99355.08;1658937;84;21481;-69
2021/06/28 05:25:33;;;;;;;7.00;6.20;;;;;;;19.93;82.27;99348.41;1648052;85;21070;-71
2021/06/28 05:28:00;;;;;;;13.32;7.03;;;;;;;19.96;82.43;99349.12;1669154;85;21129;-71
2021/06/28 05:30:26;;;;;;;6.85;6.10;;;;;;;19.96;82.62;99334.11;1669141;84;21012;-70
2021/06/28 05:32:54;;;;;;;7.17;6.47;;;;;;;20.02;82.44;99338.30;1669097;86;21079;-84
2021/06/28 05:35:21;;;;;;;5.95;5.42;;;;;;;20.15;81.94;99355.64;1669175;86;20976;-69
2021/06/28 05:37:48;;;;;;;6.40;5.75;;;;;;;20.15;81.94;99355.64;1658436;85;21051;-70
2021/06/28 05:40:15;;;;;;;6.85;5.30;;;;;;;20.14;81.54;99342.58;1653161;85;21160;-71
2021/06/28 05:42:44;;;;;;;8.25;6.15;;;;;;;20.14;81.54;99342.58;1670867;85;20963;-70
2021/06/28 05:45:11;;;;;;;6.15;5.65;;;;;;;20.24;81.38;99343.59;1670632;85;21063;-71
2021/06/28 05:47:38;;;;;;;6.92;5.80;;;;;;;20.24;81.38;99343.59;1670607;85;21071;-71
2021/06/28 05:50:11;;;;;;;11.65;6.97;;;;;;;20.39;80.55;99343.70;1660741;85;21044;-71
2021/06/28 05:52:37;;;;;;;9.68;6.55;;;;;;;20.39;80.55;99343.70;1612628;89;21182;-71
2021/06/28 05:55:04;;;;;;;8.78;6.97;;;;;;;20.48;80.33;99358.14;1647213;86;21063;-71
2021/06/28 05:57:31;;;;;;;5.90;5.35;;;;;;;20.53;80.05;99351.74;1661594;86;21063;-72
2021/06/28 06:00:00;;;;;;;7.40;6.67;;;;;;;20.60;79.38;99375.27;1648719;85;21063;-71
2021/06/28 06:02:28;;;;;;;7.28;5.17;;;;;;;20.65;79.07;99364.97;1629520;88;21029;-70
2021/06/28 06:04:55;;;;;;;6.17;5.58;;;;;;;20.69;78.67;99380.95;1606622;88;21894;-70
2021/06/28 06:07:22;;;;;;;6.90;6.30;;;;;;;20.72;78.68;99375.42;1602112;89;21048;-71
2021/06/28 06:09:49;;;;;;;8.00;7.35;;;;;;;20.71;78.74;99367.78;1602702;88;21588;-72
2021/06/28 06:12:15;;;;;;;8.38;5.35;;;;;;;20.70;78.40;99378.47;1602372;88;21100;-73
2021/06/28 06:14:42;;;;;;;15.68;6.65;;;;;;;20.70;78.44;99379.03;1626979;88;21809;-73
2021/06/28 06:17:09;;;;;;;8.53;6.28;;;;;;;20.73;78.44;99377.81;1629467;88;21801;-73
2021/06/28 06:19:36;;;;;;;7.72;6.47;;;;;;;20.78;78.33;99387.77;1614958;88;21032;-73
2021/06/28 06:22:03;;;;;;;9.08;5.90;;;;;;;20.85;78.35;99377.16;1613527;88;21091;-80
2021/06/28 06:24:30;;;;;;;7.95;6.78;;;;;;;20.93;77.79;99391.92;1629963;87;20989;-72
2021/06/28 06:26:57;;;;;;;7.62;6.30;;;;;;;20.96;77.25;99398.90;1630057;88;21560;-73
2021/06/28 06:29:26;;;;;;;5.92;4.85;;;;;;;20.99;77.24;99397.46;1629856;88;21174;-72
2021/06/28 06:31:53;;;;;;;14.87;5.37;;;;;;;21.01;77.05;99399.29;1628989;87;21007;-74
2021/06/28 06:34:20;;;;;;;6.45;5.80;;;;;;;21.04;76.85;99405.49;1615948;88;21181;-74
2021/06/28 06:36:46;;;;;;;5.67;5.22;;;;;;;21.04;76.86;99396.73;1628194;88;21044;-74
2021/06/28 06:39:13;;;;;;;6.40;5.53;;;;;;;21.07;76.79;99390.59;1627781;88;21119;-71
2021/06/28 06:41:42;;;;;;;5.90;5.40;;;;;;;21.08;76.56;99397.67;1622074;87;21857;-73
2021/06/28 06:44:10;;;;;;;6.10;5.60;;;;;;;21.06;76.44;99402.66;1625832;88;21092;-75
2021/06/28 06:46:37;;;;;;;7.17;4.97;;;;;;;21.04;76.66;99416.43;1629768;88;21127;-71
2021/06/28 06:49:04;;;;;;;5.92;5.40;;;;;;;21.05;76.48;99395.61;1612698;88;21159;-72
2021/06/28 06:51:32;;;;;;;6.10;5.50;;;;;;;21.12;76.33;99392.35;1619949;88;21531;-75
2021/06/28 06:53:59;;;;;;;10.25;5.90;;;;;;;21.15;76.02;99400.73;1629173;88;21194;-71
2021/06/28 06:56:26;;;;;;;10.72;5.90;;;;;;;21.17;76.00;99405.87;1629785;88;20964;-72
2021/06/28 06:58:54;;;;;;;5.45;4.95;;;;;;;21.17;76.06;99393.58;1625739;86;21017;-74
2021/06/28 07:01:21;;;;;;;5.78;5.20;;;;;;;21.17;75.78;99402.59;1622077;88;21058;-71
2021/06/28 07:03:49;;;;;;;5.17;4.42;;;;;;;21.22;75.88;99403.78;1665850;86;21083;-71
2021/06/28 07:06:16;;;;;;;5.47;5.03;;;;;;;21.27;75.80;99414.55;1654784;86;21162;-73
2021/06/28 07:08:43;;;;;;;7.40;5.53;;;;;;;21.34;75.59;99414.05;1652673;86;21148;-70
2021/06/28 07:11:13;;;;;;;5.35;4.85;;;;;;;21.37;75.54;99413.95;1614996;88;21035;-70
2021/06/28 07:13:42;;;;;;;5.17;4.67;;;;;;;21.41;75.60;99412.96;1625546;88;20992;-73
2021/06/28 07:16:09;;;;;;;5.78;5.28;;;;;;;21.45;75.06;99415.84;1621629;88;21090;-71
2021/06/28 07:18:37;;;;;;;5.25;4.75;;;;;;;21.45;74.86;99424.05;1660757;86;21825;-76
2021/06/28 07:21:04;;;;;;;7.25;5.25;;;;;;;21.46;74.74;99433.86;1611399;88;21876;-72
2021/06/28 07:23:31;;;;;;;5.22;4.70;;;;;;;21.46;74.84;99422.36;1592912;88;21116;-74
2021/06/28 07:25:59;;;;;;;5.30;4.80;;;;;;;21.47;74.83;99422.59;1592960;90;21562;-72
2021/06/28 07:28:28;;;;;;;6.28;5.78;;;;;;;21.51;74.76;99425.47;1592976;90;21099;-73
2021/06/28 07:30:58;;;;;;;9.10;4.65;;;;;;;21.54;74.62;99430.28;1596851;88;22346;-74
2021/06/28 07:33:26;;;;;;;6.22;4.78;;;;;;;21.54;74.52;99422.06;1601389;88;20974;-73
2021/06/28 07:35:58;;;;;;;4.97;4.53;;;;;;;21.57;74.42;99417.33;1591050;88;21069;-72
2021/06/28 07:38:26;;;;;;;6.17;5.58;;;;;;;21.60;74.21;99434.45;1625038;86;20966;-74
2021/06/28 07:40:52;;;;;;;6.95;5.25;;;;;;;21.63;74.14;99411.91;1658995;86;21123;-72
2021/06/28 07:43:20;;;;;;;7.25;5.08;;;;;;;21.67;73.81;99413.66;1610184;89;21109;-73
2021/06/28 07:45:50;;;;;;;5.45;4.95;;;;;;;21.72;73.75;99414.84;1651933;86;21074;-74
2021/06/28 07:48:17;;;;;;;10.25;5.47;;;;;;;21.79;73.74;99411.56;1610430;89;21079;-73
2021/06/28 07:50:44;;;;;;;6.22;4.72;;;;;;;21.91;73.46;99414.98;1653757;86;21598;-72
2021/06/28 07:53:11;;;;;;;4.55;3.90;;;;;;;22.00;72.67;99411.08;1610467;89;21035;-73
2021/06/28 07:55:40;;;;;;;6.17;5.22;;;;;;;22.06;71.80;99426.16;1631335;86;21482;-69
2021/06/28 07:58:07;;;;;;;5.12;4.20;;;;;;;22.10;71.07;99416.17;1610383;89;21058;-74
2021/06/28 08:00:35;;;;;;;4.62;4.20;;;;;;;22.14;70.68;99417.67;1636178;86;21080;-72
2021/06/28 08:03:04;;;;;;;4.65;4.25;;;;;;;22.17;70.55;99420.54;1639464;86;21085;-72
2021/06/28 08:05:32;;;;;;;3.87;3.50;;;;;;;22.15;70.00;99448.05;1618342;85;21070;-71
2021/06/28 08:07:59;;;;;;;7.03;5.30;;;;;;;22.13;70.00;99455.78;1670284;85;21209;-77
2021/06/28 08:10:27;;;;;;;4.72;3.67;;;;;;;22.12;70.29;99438.54;1670684;85;21496;-74
2021/06/28 08:12:55;;;;;;;5.30;4.00;;;;;;;22.16;70.06;99409.91;1652476;85;21134;-70
2021/06/28 08:15:22;;;;;;;7.50;3.67;;;;;;;22.22;70.06;99427.75;1661962;84;20955;-71
2021/06/28 08:17:52;;;;;;;6.08;3.55;;;;;;;22.33;70.08;99436.39;1670215;85;21532;-72
2021/06/28 08:20:20;;;;;;;4.03;3.70;;;;;;;22.38;69.76;99423.86;1653115;85;21150;-71
2021/06/28 08:22:48;;;;;;;5.85;4.20;;;;;;;22.44;69.59;99444.45;1662610;85;21055;-70
2021/06/28 08:25:19;;;;;;;4.42;4.05;;;;;;;22.41;70.00;99451.95;1666068;85;21008;-72
2021/06/28 08:27:45;;;;;;;4.75;4.35;;;;;;;22.37;70.31;99444.98;1641925;87;21087;-71
2021/06/28 08:30:13;;;;;;;4.25;3.85;;;;;;;22.35;69.93;99455.46;1641962;87;21054;-71
2021/06/28 08:32:41;;;;;;;4.28;3.98;;;;;;;22.37;70.17;99438.13;1641897;87;21179;-70
2021/06/28 08:35:09;;;;;;;4.97;3.83;;;;;;;22.42;69.43;99445.34;1642067;87;21096;-73
2021/06/28 08:37:37;;;;;;;6.35;4.00;;;;;;;22.49;68.42;99447.00;1656626;84;21042;-70
2021/06/28 08:40:06;;;;;;;8.23;4.40;;;;;;;22.55;67.88;99445.64;1650119;85;21061;-71
2021/06/28 08:42:33;;;;;;;5.05;4.42;;;;;;;22.59;67.55;99452.86;1689498;84;21091;-70
2021/06/28 08:45:01;;;;;;;8.95;4.58;;;;;;;22.67;67.65;99470.39;1666759;84;21242;-72
2021/06/28 08:47:28;;;;;;;5.35;3.98;;;;;;;22.74;67.63;99461.64;1667934;85;22238;-70
2021/06/28 08:49:57;;;;;;;4.22;3.83;;;;;;;22.80;67.82;99439.16;1660150;84;21532;-73
2021/06/28 08:52:23;;;;;;;3.58;3.25;;;;;;;22.90;67.18;99455.20;1663649;84;21139;-71
2021/06/28 08:54:50;;;;;;;3.02;2.83;;;;;;;23.00;66.78;99445.19;1655922;85;21051;-73
2021/06/28 08:57:18;;;;;;;4.12;2.98;;;;;;;23.14;65.66;99442.70;1656528;84;22323;-71
2021/06/28 08:59:45;;;;;;;3.98;3.55;;;;;;;23.24;64.85;99481.50;1653960;85;20966;-71
2021/06/28 09:02:12;;;;;;;3.37;3.17;;;;;;;23.32;64.53;99466.87;1645182;86;21209;-72
2021/06/28 09:05:05;;;;;;;4.25;3.27;;;;;;;23.36;64.52;99474.66;1618175;87;21126;-73
2021/06/28 09:07:32;;;;;;;4.12;3.72;;;;;;;23.39;64.57;99463.02;1589539;89;21038;-72
2021/06/28 09:09:59;;;;;;;3.40;3.20;;;;;;;23.37;64.51;99468.03;1617616;87;21823;-73
2021/06/28 09:12:26;;;;;;;3.98;3.52;;;;;;;23.32;64.85;99465.50;1645290;87;21040;-72
2021/06/28 09:14:58;;;;;;;6.05;3.45;;;;;;;23.24;65.12;99458.17;1630019;87;21567;-70
2021/06/28 09:17:35;;;;;;;4.58;4.10;;;;;;;23.22;65.24;99461.02;1614201;87;21553;-72
2021/06/28 09:20:20;;;;;;;3.60;3.30;;;;;;;23.24;65.35;99455.43;1608879;87;20964;-74
2021/06/28 09:22:50;;;;;;;3.75;3.33;;;;;;;23.33;65.14;99452.02;1608672;87;21170;-72
2021/06/28 09:25:38;;;;;;;4.60;3.60;;;;;;;23.49;64.35;99453.57;1619663;87;20988;-73
2021/06/28 09:28:05;;;;;;;3.67;3.37;;;;;;;23.59;63.64;99455.07;1601612;89;21075;-70
2021/06/28 09:30:50;;;;;;;4.65;3.60;;;;;;;23.60;63.79;99449.78;1628312;87;21659;-74
2021/06/28 09:33:10;;;;;;;7.12;4.08;;;;;;;23.61;63.85;99457.69;1632520;87;21063;-74
2021/06/28 09:35:40;;;;;;;4.20;3.80;;;;;;;23.66;64.16;99467.64;1631658;87;21830;-72
2021/06/28 09:38:32;;;;;;;5.35;3.40;;;;;;;23.73;63.82;99451.42;1630690;87;37586;-72
2021/06/28 09:41:33;;;;;;;4.78;3.90;;;;;;;23.74;63.54;99459.89;1606737;89;20967;-71
2021/06/28 09:44:03;;;;;;;3.98;3.30;;;;;;;23.79;63.21;99463.75;1632196;87;21088;-69
2021/06/28 09:46:30;;;;;;;6.17;3.60;;;;;;;23.79;62.94;99462.38;1629236;87;21615;-71
2021/06/28 09:48:58;;;;;;;6.80;3.90;;;;;;;23.76;62.81;99465.83;1629979;87;21159;-70
2021/06/28 09:51:27;;;;;;;4.62;4.17;;;;;;;23.72;63.26;99475.33;1629172;87;20972;-69
2021/06/28 09:54:10;;;;;;;5.15;3.85;;;;;;;23.71;62.98;99471.55;1628438;87;20992;-70
2021/06/28 09:56:52;;;;;;;11.10;4.58;;;;;;;23.72;63.19;99457.48;1630517;86;20944;-75
2021/06/28 09:59:37;;;;;;;6.05;3.60;;;;;;;23.81;63.34;99459.53;1634739;86;22292;-81
2021/06/28 10:02:30;;;;;;;4.47;3.45;;;;;;;23.89;63.20;99459.98;1637420;87;21125;-73
2021/06/28 10:07:40;;;;;;;7.37;4.15;;;;;;;24.11;61.67;99465.59;1560883;87;21123;-76
2021/06/28 10:10:28;;;;;;;11.55;3.65;;;;;;;24.21;61.02;99472.61;1610429;87;21175;-71
2021/06/28 10:13:02;;;;;;;4.15;3.27;;;;;;;24.33;60.25;99479.44;1609109;87;21051;-70
2021/06/28 10:15:36;;;;;;;3.80;3.30;;;;;;;24.43;60.18;99476.79;1614243;87;21139;-72
2021/06/28 10:18:05;;;;;;;5.47;3.50;;;;;;;24.41;60.33;99483.23;1617711;87;21077;-74
2021/06/28 10:20:34;;;;;;;3.52;3.20;;;;;;;24.35;60.38;99481.28;1618328;87;21332;-70
2021/06/28 10:23:01;;;;;;;7.37;3.75;;;;;;;24.31;59.94;99466.06;1622782;88;21042;-71
2021/06/28 10:25:29;;;;;;;3.90;3.50;;;;;;;24.33;59.98;99489.87;1615592;88;21063;-71
2021/06/28 10:27:57;;;;;;;4.80;3.45;;;;;;;24.39;60.18;99464.32;1629258;87;21164;-71
2021/06/28 10:30:26;;;;;;;4.33;3.90;;;;;;;24.38;59.92;99475.66;1617034;88;21051;-69
2021/06/28 10:33:08;;;;;;;5.30;4.08;;;;;;;24.32;60.55;99489.63;1604978;89;21019;-69
2021/06/28 10:35:38;;;;;;;4.70;3.42;;;;;;;24.27;60.60;99501.44;1631875;87;21103;-68
2021/06/28 10:38:09;;;;;;;5.58;3.75;;;;;;;24.24;60.62;99488.39;1632307;86;21042;-73
2021/06/28 10:40:55;;;;;;;4.42;3.65;;;;;;;24.28;60.58;99492.85;1627783;85;21163;-79
2021/06/28 10:43:31;;;;;;;3.77;3.47;;;;;;;24.33;60.68;99476.13;1606886;88;21027;-78
2021/06/28 10:45:59;;;;;;;4.97;3.72;;;;;;;24.41;59.03;99502.48;1626512;87;21143;-79
2021/06/28 10:48:29;;;;;;;7.05;3.47;;;;;;;24.46;59.73;99495.36;1644629;87;21017;-78
2021/06/28 10:51:05;;;;;;;4.92;3.40;;;;;;;24.53;59.24;99493.62;1634721;87;21047;-83
2021/06/28 10:53:39;;;;;;;3.90;3.60;;;;;;;24.58;59.34;99478.82;1632614;87;21127;-80
2021/06/28 10:56:55;;;;;;;;;;;;;;;;;;;;;
2021/06/28 10:59:17;;;;;;;5.67;5.05;;;;;;;24.49;59.87;99495.47;1591660;88;21135;-85
2021/06/28 11:01:57;;;;;;;4.40;3.98;;;;;;;24.41;60.37;99487.35;1606228;88;21066;-77
2021/06/28 11:04:33;;;;;;;7.90;4.87;;;;;;;24.37;60.71;99487.22;1611221;87;21591;-75
2021/06/28 11:07:09;;;;;;;6.22;4.00;;;;;;;24.39;60.89;99493.19;1620043;87;22142;-75
2021/06/28 11:09:41;;;;;;;9.18;4.20;;;;;;;24.39;60.97;99469.82;1636209;87;21528;-72
2021/06/28 11:12:24;;;;;;;4.83;3.87;;;;;;;24.63;60.04;99484.89;1624980;88;21020;-76
2021/06/28 11:14:59;;;;;;;6.22;3.65;;;;;;;24.63;60.04;99484.89;1618648;88;20959;-74
2021/06/28 11:17:49;;;;;;;3.83;3.52;;;;;;;24.73;59.43;99482.22;1631896;87;21127;-74
2021/06/28 11:20:35;;;;;;;3.60;3.30;;;;;;;24.80;57.84;99497.54;1630756;87;21164;-74
2021/06/28 11:23:09;;;;;;;3.52;3.22;;;;;;;24.82;57.58;99488.38;1626533;87;21074;-73
2021/06/28 11:25:49;;;;;;;4.15;3.75;;;;;;;24.78;57.91;99486.67;1632164;85;21054;-75
2021/06/28 11:28:27;;;;;;;4.47;4.05;;;;;;;24.72;58.52;99492.99;1631111;87;21122;-73
2021/06/28 11:31:13;;;;;;;3.45;3.25;;;;;;;24.67;58.55;99490.48;1631109;86;21592;-74
2021/06/28 11:33:50;;;;;;;4.12;2.77;;;;;;;24.61;58.57;99495.42;1632870;87;21087;-74
2021/06/28 11:36:31;;;;;;;5.20;3.12;;;;;;;24.67;56.78;99481.66;1606135;89;20947;-74
2021/06/28 11:39:24;;;;;;;4.37;3.15;;;;;;;24.83;54.62;99464.42;1606023;89;21634;-73
2021/06/28 11:42:19;;;;;;;5.58;3.25;;;;;;;25.04;55.08;99469.16;1605408;88;21051;-73
2021/06/28 11:44:53;;;;;;;10.55;3.87;;;;;;;25.29;54.95;99489.91;1606284;87;21512;-73
2021/06/28 11:47:50;;;;;;;3.25;2.95;;;;;;;25.40;52.58;99469.55;1604880;89;22007;-72
2021/06/28 11:50:28;;;;;;;8.68;3.85;;;;;;;25.45;52.72;99469.30;1596003;89;21138;-74